sensor_id;sensor_type;location;lat;lon;timestamp;pressure;altitude;pressure_sealevel;temperature;humidity
20444;BME280;10381;53.730;10.010;2022-07-18T00:01:52;102164.31;;;11.23;100.00
20444;BME280;10381;53.730;10.010;2022-07-18T00:05:53;102168.56;;;11.25;100.00
20444;BME280;10381;53.730;10.010;2022-07-18T00:09:54;102174.72;;;11.39;100.00
20444;BME280;10381;53.730;10.010;2022-07-18T00:13:55;102169.91;;;11.57;100.00
20444;BME280;10381;53.730;10.010;2022-07-18T00:17:55;102174.38;;;11.69;100.00
20444;BME280;10381;53.730;10.010;2022-07-18T00:21:56;102174.44;;;11.80;100.00
20444;BME280;10381;53.730;10.010;2022-07-18T00:25:56;102174.66;;;11.90;100.00
20444;BME280;10381;53.730;10.010;2022-07-18T00:29:56;102174.00;;;11.99;100.00
20444;BME280;10381;53.730;10.010;2022-07-18T00:33:56;102169.78;;;11.97;100.00
20444;BME280;10381;53.730;10.010;2022-07-18T00:37:57;102166.59;;;11.91;100.00
20444;BME280;10381;53.730;10.010;2022-07-18T00:41:57;102168.91;;;11.83;100.00
20444;BME280;10381;53.730;10.010;2022-07-18T00:45:58;102160.88;;;11.72;100.00
20444;BME280;10381;53.730;10.010;2022-07-18T00:49:58;102153.91;;;11.58;100.00
20444;BME280;10381;53.730;10.010;2022-07-18T00:53:58;102163.69;;;11.45;100.00
20444;BME280;10381;53.730;10.010;2022-07-18T00:57:59;102151.38;;;11.31;100.00
20444;BME280;10381;53.730;10.010;2022-07-18T01:01:59;102156.66;;;11.18;100.00
20444;BME280;10381;53.730;10.010;2022-07-18T01:06:00;102154.78;;;11.07;100.00
20444;BME280;10381;53.730;10.010;2022-07-18T01:10:00;102156.06;;;11.02;100.00
20444;BME280;10381;53.730;10.010;2022-07-18T01:14:02;102157.19;;;10.98;100.00
20444;BME280;10381;53.730;10.010;2022-07-18T01:18:04;102166.84;;;10.99;100.00
20444;BME280;10381;53.730;10.010;2022-07-18T01:22:04;102167.59;;;10.88;100.00
20444;BME280;10381;53.730;10.010;2022-07-18T01:26:05;102163.56;;;10.82;100.00
20444;BME280;10381;53.730;10.010;2022-07-18T01:30:06;102156.44;;;10.83;100.00
20444;BME280;10381;53.730;10.010;2022-07-18T01:34:07;102156.63;;;10.80;100.00
20444;BME280;10381;53.730;10.010;2022-07-18T01:38:07;102156.44;;;10.83;100.00
20444;BME280;10381;53.730;10.010;2022-07-18T01:42:09;102161.75;;;10.83;100.00
20444;BME280;10381;53.730;10.010;2022-07-18T01:46:10;102167.69;;;10.86;100.00
20444;BME280;10381;53.730;10.010;2022-07-18T01:50:12;102160.28;;;11.04;100.00
20444;BME280;10381;53.730;10.010;2022-07-18T01:54:13;102161.03;;;11.19;100.00
20444;BME280;10381;53.730;10.010;2022-07-18T01:58:14;102154.66;;;11.35;100.00
20444;BME280;10381;53.730;10.010;2022-07-18T02:02:14;102170.59;;;11.47;100.00
20444;BME280;10381;53.730;10.010;2022-07-18T02:06:14;102165.56;;;11.56;100.00
20444;BME280;10381;53.730;10.010;2022-07-18T02:10:17;102169.06;;;11.69;100.00
20444;BME280;10381;53.730;10.010;2022-07-18T02:14:17;102161.16;;;11.80;100.00
20444;BME280;10381;53.730;10.010;2022-07-18T02:18:18;102163.63;;;11.96;100.00
20444;BME280;10381;53.730;10.010;2022-07-18T02:22:18;102157.19;;;12.11;100.00
20444;BME280;10381;53.730;10.010;2022-07-18T02:26:18;102152.03;;;12.21;100.00
20444;BME280;10381;53.730;10.010;2022-07-18T02:30:19;102149.88;;;12.26;100.00
20444;BME280;10381;53.730;10.010;2022-07-18T02:34:19;102139.25;;;12.26;100.00
20444;BME280;10381;53.730;10.010;2022-07-18T02:38:19;102131.84;;;12.19;100.00
20444;BME280;10381;53.730;10.010;2022-07-18T02:42:21;102133.59;;;12.07;100.00
20444;BME280;10381;53.730;10.010;2022-07-18T02:46:21;102142.16;;;11.86;100.00
20444;BME280;10381;53.730;10.010;2022-07-18T02:50:22;102136.03;;;11.73;100.00
20444;BME280;10381;53.730;10.010;2022-07-18T02:54:23;102136.47;;;11.54;100.00
20444;BME280;10381;53.730;10.010;2022-07-18T02:58:23;102134.59;;;11.43;100.00
20444;BME280;10381;53.730;10.010;2022-07-18T03:02:24;102135.00;;;11.37;100.00
20444;BME280;10381;53.730;10.010;2022-07-18T03:06:25;102127.38;;;11.33;100.00
20444;BME280;10381;53.730;10.010;2022-07-18T03:10:25;102124.53;;;11.36;100.00
20444;BME280;10381;53.730;10.010;2022-07-18T03:14:26;102130.47;;;11.39;100.00
20444;BME280;10381;53.730;10.010;2022-07-18T03:18:26;102131.41;;;11.51;100.00
20444;BME280;10381;53.730;10.010;2022-07-18T03:22:26;102127.75;;;11.65;100.00
20444;BME280;10381;53.730;10.010;2022-07-18T03:26:27;102123.06;;;11.81;100.00
20444;BME280;10381;53.730;10.010;2022-07-18T03:30:28;102135.88;;;12.00;100.00
20444;BME280;10381;53.730;10.010;2022-07-18T03:34:28;102120.78;;;12.25;100.00
20444;BME280;10381;53.730;10.010;2022-07-18T03:38:29;102108.91;;;12.53;100.00
20444;BME280;10381;53.730;10.010;2022-07-18T03:42:29;102119.91;;;12.95;100.00
20444;BME280;10381;53.730;10.010;2022-07-18T03:46:30;102113.31;;;13.23;100.00
20444;BME280;10381;53.730;10.010;2022-07-18T03:50:30;102111.59;;;13.22;100.00
20444;BME280;10381;53.730;10.010;2022-07-18T03:54:31;102106.06;;;13.36;100.00
20444;BME280;10381;53.730;10.010;2022-07-18T03:58:31;102096.63;;;13.43;100.00
20444;BME280;10381;53.730;10.010;2022-07-18T04:02:31;102091.03;;;13.58;100.00
20444;BME280;10381;53.730;10.010;2022-07-18T04:06:32;102089.94;;;13.72;100.00
20444;BME280;10381;53.730;10.010;2022-07-18T04:10:32;102070.53;;;13.81;100.00
20444;BME280;10381;53.730;10.010;2022-07-18T04:14:32;102058.28;;;13.90;100.00
20444;BME280;10381;53.730;10.010;2022-07-18T04:18:33;102044.72;;;13.93;100.00
20444;BME280;10381;53.730;10.010;2022-07-18T04:22:47;102035.47;;;13.97;100.00
20444;BME280;10381;53.730;10.010;2022-07-18T04:26:48;102030.75;;;14.00;100.00
20444;BME280;10381;53.730;10.010;2022-07-18T04:30:50;102029.66;;;14.03;100.00
20444;BME280;10381;53.730;10.010;2022-07-18T04:34:51;102025.13;;;14.15;100.00
20444;BME280;10381;53.730;10.010;2022-07-18T04:38:51;102017.53;;;14.31;100.00
20444;BME280;10381;53.730;10.010;2022-07-18T04:42:51;102016.34;;;14.66;100.00
20444;BME280;10381;53.730;10.010;2022-07-18T04:46:52;102018.56;;;15.32;100.00
20444;BME280;10381;53.730;10.010;2022-07-18T04:50:52;102006.72;;;17.18;100.00
20444;BME280;10381;53.730;10.010;2022-07-18T04:54:53;101992.84;;;19.08;100.00
20444;BME280;10381;53.730;10.010;2022-07-18T04:58:54;101993.25;;;22.17;100.00
20444;BME280;10381;53.730;10.010;2022-07-18T05:02:55;101988.81;;;23.65;100.00
20444;BME280;10381;53.730;10.010;2022-07-18T05:06:56;101984.50;;;22.97;100.00
20444;BME280;10381;53.730;10.010;2022-07-18T05:10:57;101982.44;;;22.40;100.00
20444;BME280;10381;53.730;10.010;2022-07-18T05:14:57;101983.97;;;23.38;100.00
20444;BME280;10381;53.730;10.010;2022-07-18T05:18:57;101983.25;;;22.26;100.00
20444;BME280;10381;53.730;10.010;2022-07-18T05:22:58;101985.81;;;20.96;100.00
20444;BME280;10381;53.730;10.010;2022-07-18T05:26:58;101985.81;;;20.07;100.00
20444;BME280;10381;53.730;10.010;2022-07-18T05:30:58;101984.84;;;19.25;100.00
20444;BME280;10381;53.730;10.010;2022-07-18T05:35:00;101992.84;;;18.74;100.00
20444;BME280;10381;53.730;10.010;2022-07-18T05:39:01;101998.91;;;18.50;100.00
20444;BME280;10381;53.730;10.010;2022-07-18T05:43:01;102004.34;;;18.66;100.00
20444;BME280;10381;53.730;10.010;2022-07-18T05:47:02;102004.81;;;19.22;100.00
20444;BME280;10381;53.730;10.010;2022-07-18T05:51:03;102004.78;;;19.81;100.00
20444;BME280;10381;53.730;10.010;2022-07-18T05:55:04;102012.84;;;20.38;100.00
20444;BME280;10381;53.730;10.010;2022-07-18T05:59:04;102009.69;;;20.99;100.00
20444;BME280;10381;53.730;10.010;2022-07-18T06:03:04;102006.47;;;22.94;100.00
20444;BME280;10381;53.730;10.010;2022-07-18T06:07:05;102017.47;;;24.80;100.00
20444;BME280;10381;53.730;10.010;2022-07-18T06:11:05;102008.69;;;24.21;100.00
20444;BME280;10381;53.730;10.010;2022-07-18T06:15:08;102002.88;;;23.38;100.00
20444;BME280;10381;53.730;10.010;2022-07-18T06:19:08;102000.78;;;22.89;100.00
20444;BME280;10381;53.730;10.010;2022-07-18T06:23:08;101992.41;;;22.40;100.00
20444;BME280;10381;53.730;10.010;2022-07-18T06:27:09;101987.41;;;22.66;100.00
20444;BME280;10381;53.730;10.010;2022-07-18T06:31:09;101986.97;;;23.29;100.00
20444;BME280;10381;53.730;10.010;2022-07-18T06:35:11;101996.38;;;24.19;100.00
20444;BME280;10381;53.730;10.010;2022-07-18T06:39:11;102002.75;;;24.61;100.00
20444;BME280;10381;53.730;10.010;2022-07-18T06:43:12;101987.88;;;24.92;100.00
20444;BME280;10381;53.730;10.010;2022-07-18T06:47:19;101993.44;;;25.18;100.00
20444;BME280;10381;53.730;10.010;2022-07-18T06:51:19;101986.22;;;24.49;100.00
20444;BME280;10381;53.730;10.010;2022-07-18T06:55:19;101988.00;;;24.42;100.00
20444;BME280;10381;53.730;10.010;2022-07-18T06:59:20;101994.50;;;25.17;99.65
20444;BME280;10381;53.730;10.010;2022-07-18T07:03:21;101996.94;;;25.67;92.65
20444;BME280;10381;53.730;10.010;2022-07-18T07:07:21;101988.34;;;26.43;91.81
20444;BME280;10381;53.730;10.010;2022-07-18T07:11:21;101987.53;;;27.14;83.23
20444;BME280;10381;53.730;10.010;2022-07-18T07:15:23;102006.38;;;27.54;80.72
20444;BME280;10381;53.730;10.010;2022-07-18T07:19:23;102003.34;;;27.37;78.81
20444;BME280;10381;53.730;10.010;2022-07-18T07:23:23;101995.88;;;26.68;77.83
20444;BME280;10381;53.730;10.010;2022-07-18T07:27:23;101992.53;;;26.59;80.23
20444;BME280;10381;53.730;10.010;2022-07-18T07:31:24;102003.19;;;26.47;78.39
20444;BME280;10381;53.730;10.010;2022-07-18T07:35:24;101996.28;;;25.65;81.82
20444;BME280;10381;53.730;10.010;2022-07-18T07:39:25;101997.38;;;25.16;84.06
20444;BME280;10381;53.730;10.010;2022-07-18T07:43:25;101995.53;;;25.16;84.49
20444;BME280;10381;53.730;10.010;2022-07-18T07:47:25;101985.84;;;25.62;81.39
20444;BME280;10381;53.730;10.010;2022-07-18T07:51:26;101977.13;;;26.20;81.06
20444;BME280;10381;53.730;10.010;2022-07-18T07:55:28;101976.41;;;26.64;78.41
20444;BME280;10381;53.730;10.010;2022-07-18T07:59:28;101982.34;;;26.14;77.86
20444;BME280;10381;53.730;10.010;2022-07-18T08:03:30;101973.97;;;25.76;78.27
20444;BME280;10381;53.730;10.010;2022-07-18T08:07:31;101974.28;;;25.20;79.57
20444;BME280;10381;53.730;10.010;2022-07-18T08:11:31;101980.75;;;24.84;80.48
20444;BME280;10381;53.730;10.010;2022-07-18T08:15:31;101976.34;;;25.18;79.09
20444;BME280;10381;53.730;10.010;2022-07-18T08:19:32;101968.72;;;25.55;77.84
20444;BME280;10381;53.730;10.010;2022-07-18T08:23:32;101963.09;;;25.83;75.28
20444;BME280;10381;53.730;10.010;2022-07-18T08:27:32;101962.66;;;25.53;73.71
20444;BME280;10381;53.730;10.010;2022-07-18T08:31:33;101950.34;;;26.23;75.65
20444;BME280;10381;53.730;10.010;2022-07-18T08:35:34;101940.69;;;26.61;72.21
20444;BME280;10381;53.730;10.010;2022-07-18T08:39:34;101930.84;;;26.53;71.30
20444;BME280;10381;53.730;10.010;2022-07-18T08:43:35;101934.09;;;26.82;70.91
20444;BME280;10381;53.730;10.010;2022-07-18T08:47:35;101923.03;;;27.53;69.84
20444;BME280;10381;53.730;10.010;2022-07-18T08:51:36;101934.09;;;27.90;67.44
20444;BME280;10381;53.730;10.010;2022-07-18T08:55:36;101927.13;;;27.69;66.92
20444;BME280;10381;53.730;10.010;2022-07-18T08:59:36;101935.56;;;27.29;67.60
20444;BME280;10381;53.730;10.010;2022-07-18T09:03:37;101924.16;;;27.07;68.40
20444;BME280;10381;53.730;10.010;2022-07-18T09:07:37;101927.22;;;27.17;69.18
20444;BME280;10381;53.730;10.010;2022-07-18T09:11:49;101924.28;;;27.82;68.81
20444;BME280;10381;53.730;10.010;2022-07-18T09:20:12;101945.09;;;28.20;65.46
20444;BME280;10381;53.730;10.010;2022-07-18T09:24:15;101942.31;;;26.75;64.93
20444;BME280;10381;53.730;10.010;2022-07-18T09:28:16;101950.38;;;25.83;67.46
20444;BME280;10381;53.730;10.010;2022-07-18T09:32:21;101951.22;;;25.84;68.56
20444;BME280;10381;53.730;10.010;2022-07-18T09:36:22;101948.66;;;26.29;67.96
20444;BME280;10381;53.730;10.010;2022-07-18T09:40:31;101949.28;;;26.51;68.40
20444;BME280;10381;53.730;10.010;2022-07-18T09:44:32;101948.59;;;26.75;68.10
20444;BME280;10381;53.730;10.010;2022-07-18T09:48:32;101951.34;;;26.62;69.00
20444;BME280;10381;53.730;10.010;2022-07-18T09:52:32;101940.16;;;26.84;69.10
20444;BME280;10381;53.730;10.010;2022-07-18T09:56:33;101955.00;;;26.88;69.01
20444;BME280;10381;53.730;10.010;2022-07-18T10:00:36;101952.16;;;27.14;69.77
20444;BME280;10381;53.730;10.010;2022-07-18T10:04:36;101949.59;;;26.81;68.69
20444;BME280;10381;53.730;10.010;2022-07-18T10:08:39;101937.00;;;27.32;70.55
20444;BME280;10381;53.730;10.010;2022-07-18T10:12:40;101929.59;;;27.71;68.18
20444;BME280;10381;53.730;10.010;2022-07-18T10:16:41;101921.84;;;27.49;67.93
20444;BME280;10381;53.730;10.010;2022-07-18T10:20:45;101908.94;;;26.99;68.64
20444;BME280;10381;53.730;10.010;2022-07-18T10:24:46;101886.56;;;27.86;69.64
20444;BME280;10381;53.730;10.010;2022-07-18T10:32:55;101902.91;;;29.27;66.12
20444;BME280;10381;53.730;10.010;2022-07-18T10:41:11;101908.31;;;30.51;61.46
20444;BME280;10381;53.730;10.010;2022-07-18T10:45:50;101918.31;;;31.15;59.88
20444;BME280;10381;53.730;10.010;2022-07-18T10:54:05;101912.91;;;31.49;55.03
20444;BME280;10381;53.730;10.010;2022-07-18T11:02:09;101902.06;;;31.25;53.36
20444;BME280;10381;53.730;10.010;2022-07-18T11:06:09;101889.19;;;30.80;54.39
20444;BME280;10381;53.730;10.010;2022-07-18T11:10:10;101891.50;;;31.17;55.00
20444;BME280;10381;53.730;10.010;2022-07-18T11:22:50;101878.72;;;30.77;53.12
20444;BME280;10381;53.730;10.010;2022-07-18T11:26:50;101878.69;;;31.34;51.35
20444;BME280;10381;53.730;10.010;2022-07-18T11:31:02;101874.56;;;30.86;50.74
20444;BME280;10381;53.730;10.010;2022-07-18T11:35:03;101873.66;;;30.97;50.78
20444;BME280;10381;53.730;10.010;2022-07-18T11:39:07;101875.47;;;30.51;49.63
20444;BME280;10381;53.730;10.010;2022-07-18T11:43:07;101855.56;;;30.39;50.74
20444;BME280;10381;53.730;10.010;2022-07-18T11:47:09;101844.72;;;30.73;50.94
20444;BME280;10381;53.730;10.010;2022-07-18T11:51:19;101850.78;;;30.75;50.31
20444;BME280;10381;53.730;10.010;2022-07-18T11:55:34;101853.06;;;31.40;49.39
20444;BME280;10381;53.730;10.010;2022-07-18T11:59:37;101846.97;;;31.38;48.63
20444;BME280;10381;53.730;10.010;2022-07-18T12:03:49;101844.81;;;31.74;48.96
20444;BME280;10381;53.730;10.010;2022-07-18T12:07:50;101844.50;;;31.37;48.13
20444;BME280;10381;53.730;10.010;2022-07-18T12:11:50;101844.00;;;31.23;49.17
20444;BME280;10381;53.730;10.010;2022-07-18T12:15:51;101838.03;;;31.60;49.69
20444;BME280;10381;53.730;10.010;2022-07-18T12:19:51;101842.75;;;31.14;48.50
20444;BME280;10381;53.730;10.010;2022-07-18T12:23:51;101840.00;;;30.97;49.06
20444;BME280;10381;53.730;10.010;2022-07-18T12:27:52;101836.38;;;30.51;50.26
20444;BME280;10381;53.730;10.010;2022-07-18T12:31:52;101840.19;;;29.74;50.84
20444;BME280;10381;53.730;10.010;2022-07-18T12:35:57;101829.38;;;29.79;50.98
20444;BME280;10381;53.730;10.010;2022-07-18T12:40:07;101829.00;;;29.64;51.14
20444;BME280;10381;53.730;10.010;2022-07-18T12:44:13;101821.75;;;29.58;50.72
20444;BME280;10381;53.730;10.010;2022-07-18T12:48:14;101805.13;;;29.94;51.72
20444;BME280;10381;53.730;10.010;2022-07-18T12:52:14;101806.16;;;30.86;51.53
20444;BME280;10381;53.730;10.010;2022-07-18T12:56:15;101800.97;;;31.74;50.22
20444;BME280;10381;53.730;10.010;2022-07-18T13:00:15;101798.56;;;32.44;48.62
20444;BME280;10381;53.730;10.010;2022-07-18T13:04:15;101800.03;;;32.79;47.45
20444;BME280;10381;53.730;10.010;2022-07-18T13:08:16;101790.22;;;31.51;47.00
20444;BME280;10381;53.730;10.010;2022-07-18T13:12:18;101785.69;;;31.06;48.68
20444;BME280;10381;53.730;10.010;2022-07-18T13:16:18;101787.38;;;30.78;48.55
20444;BME280;10381;53.730;10.010;2022-07-18T13:20:19;101787.34;;;30.61;49.11
20444;BME280;10381;53.730;10.010;2022-07-18T13:24:19;101787.34;;;30.61;49.83
20444;BME280;10381;53.730;10.010;2022-07-18T13:28:19;101777.94;;;31.03;49.91
20444;BME280;10381;53.730;10.010;2022-07-18T13:32:20;101776.81;;;31.49;48.91
20444;BME280;10381;53.730;10.010;2022-07-18T13:36:20;101770.78;;;31.69;49.64
20444;BME280;10381;53.730;10.010;2022-07-18T13:40:20;101773.34;;;31.03;49.37
20444;BME280;10381;53.730;10.010;2022-07-18T13:44:20;101763.38;;;30.51;50.22
20444;BME280;10381;53.730;10.010;2022-07-18T13:48:21;101756.47;;;30.20;49.45
20444;BME280;10381;53.730;10.010;2022-07-18T13:52:21;101760.00;;;30.61;48.89
20444;BME280;10381;53.730;10.010;2022-07-18T13:56:21;101764.44;;;31.47;49.02
20444;BME280;10381;53.730;10.010;2022-07-18T14:00:22;101756.41;;;31.06;47.87
20444;BME280;10381;53.730;10.010;2022-07-18T14:04:22;101754.91;;;30.24;48.85
20444;BME280;10381;53.730;10.010;2022-07-18T14:08:22;101749.94;;;29.57;49.85
20444;BME280;10381;53.730;10.010;2022-07-18T14:12:22;101749.88;;;30.04;49.83
20444;BME280;10381;53.730;10.010;2022-07-18T14:16:23;101755.16;;;30.23;49.61
20444;BME280;10381;53.730;10.010;2022-07-18T14:20:23;101753.91;;;30.02;51.79
20444;BME280;10381;53.730;10.010;2022-07-18T14:24:23;101749.72;;;29.47;52.35
20444;BME280;10381;53.730;10.010;2022-07-18T14:28:24;101744.25;;;29.47;53.43
20444;BME280;10381;53.730;10.010;2022-07-18T14:32:25;101743.56;;;30.04;52.17
20444;BME280;10381;53.730;10.010;2022-07-18T14:36:25;101749.47;;;30.53;51.23
20444;BME280;10381;53.730;10.010;2022-07-18T14:40:26;101732.81;;;31.22;50.86
20444;BME280;10381;53.730;10.010;2022-07-18T14:44:26;101732.22;;;31.76;48.87
20444;BME280;10381;53.730;10.010;2022-07-18T14:48:27;101725.50;;;32.60;48.75
20444;BME280;10381;53.730;10.010;2022-07-18T14:52:27;101721.03;;;33.18;48.16
20444;BME280;10381;53.730;10.010;2022-07-18T14:56:27;101729.91;;;33.30;46.51
20444;BME280;10381;53.730;10.010;2022-07-18T15:00:28;101734.59;;;32.65;46.62
20444;BME280;10381;53.730;10.010;2022-07-18T15:04:29;101716.31;;;31.17;45.98
20444;BME280;10381;53.730;10.010;2022-07-18T15:08:29;101713.84;;;30.65;45.48
20444;BME280;10381;53.730;10.010;2022-07-18T15:12:30;101710.63;;;29.82;45.58
20444;BME280;10381;53.730;10.010;2022-07-18T15:16:31;101715.28;;;29.46;46.67
20444;BME280;10381;53.730;10.010;2022-07-18T15:20:32;101716.25;;;29.28;47.25
20444;BME280;10381;53.730;10.010;2022-07-18T15:24:33;101715.56;;;29.09;47.32
20444;BME280;10381;53.730;10.010;2022-07-18T15:28:33;101713.84;;;29.55;47.55
20444;BME280;10381;53.730;10.010;2022-07-18T15:32:34;101718.69;;;30.17;45.68
20444;BME280;10381;53.730;10.010;2022-07-18T15:36:34;101707.78;;;30.63;46.13
20444;BME280;10381;53.730;10.010;2022-07-18T15:40:35;101713.84;;;31.15;46.36
20444;BME280;10381;53.730;10.010;2022-07-18T15:44:35;101709.03;;;31.61;44.82
20444;BME280;10381;53.730;10.010;2022-07-18T15:48:38;101707.88;;;31.57;45.15
20444;BME280;10381;53.730;10.010;2022-07-18T15:52:38;101700.00;;;32.05;44.47
20444;BME280;10381;53.730;10.010;2022-07-18T15:56:39;101700.34;;;31.92;44.28
20444;BME280;10381;53.730;10.010;2022-07-18T16:00:39;101684.38;;;31.39;45.41
20444;BME280;10381;53.730;10.010;2022-07-18T16:04:39;101693.25;;;30.91;45.72
20444;BME280;10381;53.730;10.010;2022-07-18T16:08:40;101694.16;;;30.34;45.14
20444;BME280;10381;53.730;10.010;2022-07-18T16:12:41;101685.59;;;29.61;46.25
20444;BME280;10381;53.730;10.010;2022-07-18T16:16:41;101681.56;;;30.04;46.89
20444;BME280;10381;53.730;10.010;2022-07-18T16:20:41;101684.00;;;30.18;46.56
20444;BME280;10381;53.730;10.010;2022-07-18T16:24:42;101671.88;;;30.13;46.33
20444;BME280;10381;53.730;10.010;2022-07-18T16:28:42;101665.41;;;30.03;46.72
20444;BME280;10381;53.730;10.010;2022-07-18T16:32:43;101658.53;;;29.60;46.66
20444;BME280;10381;53.730;10.010;2022-07-18T16:36:43;101663.38;;;29.58;46.18
20444;BME280;10381;53.730;10.010;2022-07-18T16:40:44;101663.94;;;29.07;45.82
20444;BME280;10381;53.730;10.010;2022-07-18T16:44:44;101653.50;;;29.28;47.03
20444;BME280;10381;53.730;10.010;2022-07-18T16:48:45;101656.66;;;30.18;46.57
20444;BME280;10381;53.730;10.010;2022-07-18T16:52:45;101656.31;;;30.76;45.77
20444;BME280;10381;53.730;10.010;2022-07-18T16:56:46;101652.25;;;30.28;46.48
20444;BME280;10381;53.730;10.010;2022-07-18T17:00:47;101637.19;;;29.45;47.77
20444;BME280;10381;53.730;10.010;2022-07-18T17:04:48;101640.28;;;29.89;47.27
20444;BME280;10381;53.730;10.010;2022-07-18T17:08:49;101639.16;;;30.02;47.59
20444;BME280;10381;53.730;10.010;2022-07-18T17:12:50;101633.72;;;29.61;47.92
20444;BME280;10381;53.730;10.010;2022-07-18T17:16:50;101634.13;;;29.29;48.75
20444;BME280;10381;53.730;10.010;2022-07-18T17:20:51;101629.28;;;29.20;48.80
20444;BME280;10381;53.730;10.010;2022-07-18T17:24:54;101630.06;;;29.44;50.05
20444;BME280;10381;53.730;10.010;2022-07-18T17:28:55;101632.03;;;29.60;49.89
20444;BME280;10381;53.730;10.010;2022-07-18T17:32:56;101626.81;;;29.70;50.82
20444;BME280;10381;53.730;10.010;2022-07-18T17:36:56;101628.00;;;29.75;50.03
20444;BME280;10381;53.730;10.010;2022-07-18T17:40:57;101623.78;;;29.43;50.68
20444;BME280;10381;53.730;10.010;2022-07-18T17:44:58;101625.59;;;29.38;50.24
20444;BME280;10381;53.730;10.010;2022-07-18T17:48:59;101626.78;;;29.42;51.05
20444;BME280;10381;53.730;10.010;2022-07-18T17:52:59;101630.13;;;29.61;50.60
20444;BME280;10381;53.730;10.010;2022-07-18T17:57:02;101614.78;;;29.31;52.83
20444;BME280;10381;53.730;10.010;2022-07-18T18:01:02;101603.78;;;28.67;55.09
20444;BME280;10381;53.730;10.010;2022-07-18T18:05:04;101607.88;;;27.92;55.74
20444;BME280;10381;53.730;10.010;2022-07-18T18:09:04;101605.22;;;27.37;56.54
20444;BME280;10381;53.730;10.010;2022-07-18T18:13:05;101602.88;;;26.78;59.75
20444;BME280;10381;53.730;10.010;2022-07-18T18:17:05;101599.03;;;26.36;61.25
20444;BME280;10381;53.730;10.010;2022-07-18T18:21:05;101594.09;;;25.95;64.29
20444;BME280;10381;53.730;10.010;2022-07-18T18:25:06;101588.34;;;25.71;64.30
20444;BME280;10381;53.730;10.010;2022-07-18T18:29:07;101582.44;;;25.42;71.97
20444;BME280;10381;53.730;10.010;2022-07-18T18:33:08;101588.75;;;25.23;70.33
20444;BME280;10381;53.730;10.010;2022-07-18T18:37:08;101583.16;;;24.91;72.67
20444;BME280;10381;53.730;10.010;2022-07-18T18:41:11;101578.00;;;24.50;81.18
20444;BME280;10381;53.730;10.010;2022-07-18T18:45:13;101582.75;;;24.21;75.26
20444;BME280;10381;53.730;10.010;2022-07-18T18:49:14;101587.50;;;23.99;77.64
20444;BME280;10381;53.730;10.010;2022-07-18T18:53:15;101584.91;;;23.71;78.14
20444;BME280;10381;53.730;10.010;2022-07-18T18:57:15;101571.72;;;23.06;100.00
20444;BME280;10381;53.730;10.010;2022-07-18T19:01:15;101572.78;;;22.55;100.00
20444;BME280;10381;53.730;10.010;2022-07-18T19:05:16;101575.78;;;22.18;100.00
20444;BME280;10381;53.730;10.010;2022-07-18T19:09:17;101570.69;;;21.86;100.00
20444;BME280;10381;53.730;10.010;2022-07-18T19:13:17;101571.97;;;21.54;100.00
20444;BME280;10381;53.730;10.010;2022-07-18T19:17:18;101576.44;;;21.17;100.00
20444;BME280;10381;53.730;10.010;2022-07-18T19:21:18;101574.47;;;20.81;100.00
20444;BME280;10381;53.730;10.010;2022-07-18T19:25:19;101568.34;;;20.50;100.00
20444;BME280;10381;53.730;10.010;2022-07-18T19:29:22;101577.81;;;20.22;100.00
20444;BME280;10381;53.730;10.010;2022-07-18T19:33:22;101585.59;;;19.94;100.00
20444;BME280;10381;53.730;10.010;2022-07-18T19:37:23;101580.88;;;19.57;100.00
20444;BME280;10381;53.730;10.010;2022-07-18T19:41:23;101586.56;;;19.23;100.00
20444;BME280;10381;53.730;10.010;2022-07-18T19:45:23;101596.84;;;19.11;100.00
20444;BME280;10381;53.730;10.010;2022-07-18T19:49:24;101597.66;;;19.11;100.00
20444;BME280;10381;53.730;10.010;2022-07-18T19:53:24;101589.34;;;18.82;100.00
20444;BME280;10381;53.730;10.010;2022-07-18T19:57:26;101586.16;;;18.45;100.00
20444;BME280;10381;53.730;10.010;2022-07-18T20:01:26;101595.03;;;18.21;100.00
20444;BME280;10381;53.730;10.010;2022-07-18T20:05:27;101600.72;;;18.02;100.00
20444;BME280;10381;53.730;10.010;2022-07-18T20:09:28;101594.09;;;17.80;100.00
20444;BME280;10381;53.730;10.010;2022-07-18T20:13:28;101607.59;;;17.62;100.00
20444;BME280;10381;53.730;10.010;2022-07-18T20:17:28;101599.69;;;17.60;100.00
20444;BME280;10381;53.730;10.010;2022-07-18T20:21:29;101597.47;;;17.39;100.00
20444;BME280;10381;53.730;10.010;2022-07-18T20:25:29;101603.34;;;17.17;100.00
20444;BME280;10381;53.730;10.010;2022-07-18T20:29:30;101608.81;;;17.07;100.00
20444;BME280;10381;53.730;10.010;2022-07-18T20:33:30;101600.75;;;16.99;100.00
20444;BME280;10381;53.730;10.010;2022-07-18T20:37:31;101593.50;;;16.73;100.00
20444;BME280;10381;53.730;10.010;2022-07-18T20:41:31;101594.03;;;16.51;100.00
20444;BME280;10381;53.730;10.010;2022-07-18T20:45:31;101598.38;;;16.34;100.00
20444;BME280;10381;53.730;10.010;2022-07-18T20:49:32;101600.59;;;16.21;100.00
20444;BME280;10381;53.730;10.010;2022-07-18T20:53:32;101597.47;;;16.07;100.00
20444;BME280;10381;53.730;10.010;2022-07-18T20:57:33;101599.84;;;15.92;100.00
20444;BME280;10381;53.730;10.010;2022-07-18T21:01:33;101601.44;;;15.85;100.00
20444;BME280;10381;53.730;10.010;2022-07-18T21:05:33;101598.31;;;15.90;100.00